sensor_id;sensor_type;location;lat;lon;timestamp;pressure;altitude;pressure_sealevel;temperature;humidity
11692;BME280;33659;42.672;23.354;2023-09-08T00:01:11;69209.97;;;20.78;69.41
11692;BME280;33659;42.672;23.354;2023-09-08T00:03:38;69125.75;;;20.66;69.92
11692;BME280;33659;42.672;23.354;2023-09-08T00:06:05;69176.06;;;20.44;70.41
11692;BME280;33659;42.672;23.354;2023-09-08T00:08:33;69182.63;;;20.50;71.23
11692;BME280;33659;42.672;23.354;2023-09-08T00:10:59;69170.16;;;20.41;71.32
11692;BME280;33659;42.672;23.354;2023-09-08T00:13:26;69080.56;;;20.23;71.84
11692;BME280;33659;42.672;23.354;2023-09-08T00:15:53;69149.38;;;20.19;72.14
11692;BME280;33659;42.672;23.354;2023-09-08T00:18:20;69142.28;;;20.12;70.57
11692;BME280;33659;42.672;23.354;2023-09-08T00:20:46;69136.28;;;20.07;70.89
11692;BME280;33659;42.672;23.354;2023-09-08T00:23:13;69128.66;;;19.99;68.97
11692;BME280;33659;42.672;23.354;2023-09-08T00:25:41;69120.50;;;19.92;68.71
11692;BME280;33659;42.672;23.354;2023-09-08T00:28:08;69119.94;;;19.91;68.44
11692;BME280;33659;42.672;23.354;2023-09-08T00:30:35;69123.66;;;19.92;67.88
11692;BME280;33659;42.672;23.354;2023-09-08T00:33:01;69120.50;;;19.92;68.10
11692;BME280;33659;42.672;23.354;2023-09-08T00:35:28;69127.56;;;19.98;67.01
11692;BME280;33659;42.672;23.354;2023-09-08T00:37:55;69064.22;;;20.08;66.32
11692;BME280;33659;42.672;23.354;2023-09-08T00:40:21;69147.63;;;20.15;65.84
11692;BME280;33659;42.672;23.354;2023-09-08T00:42:56;69072.84;;;20.14;65.46
11692;BME280;33659;42.672;23.354;2023-09-08T00:45:23;69141.75;;;20.12;65.85
11692;BME280;33659;42.672;23.354;2023-09-08T00:47:50;69142.81;;;20.13;64.97
11692;BME280;33659;42.672;23.354;2023-09-08T00:50:17;69067.41;;;20.09;64.42
11692;BME280;33659;42.672;23.354;2023-09-08T00:52:44;69142.75;;;20.10;64.03
11692;BME280;33659;42.672;23.354;2023-09-08T00:55:11;69137.38;;;20.08;63.52
11692;BME280;33659;42.672;23.354;2023-09-08T00:57:38;69141.19;;;20.11;63.32
11692;BME280;33659;42.672;23.354;2023-09-08T01:00:07;69126.50;;;19.97;63.18
11692;BME280;33659;42.672;23.354;2023-09-08T01:02:34;69051.72;;;19.96;63.87
11692;BME280;33659;42.672;23.354;2023-09-08T01:05:01;69120.56;;;19.94;63.68
11692;BME280;33659;42.672;23.354;2023-09-08T01:07:29;69061.44;;;20.03;63.05
11692;BME280;33659;42.672;23.354;2023-09-08T01:09:57;69140.13;;;20.10;63.10
11692;BME280;33659;42.672;23.354;2023-09-08T01:12:29;69145.66;;;20.18;62.70
11692;BME280;33659;42.672;23.354;2023-09-08T01:14:55;69151.09;;;20.23;62.42
11692;BME280;33659;42.672;23.354;2023-09-08T01:17:23;69154.38;;;20.26;62.13
11692;BME280;33659;42.672;23.354;2023-09-08T01:19:55;69157.00;;;20.26;62.18
11692;BME280;33659;42.672;23.354;2023-09-08T01:22:35;69146.66;;;20.16;62.36
11692;BME280;33659;42.672;23.354;2023-09-08T01:25:21;69141.75;;;20.12;62.70
11692;BME280;33659;42.672;23.354;2023-09-08T01:27:50;69135.75;;;20.06;62.95
11692;BME280;33659;42.672;23.354;2023-09-08T01:30:18;69058.69;;;20.00;63.61
11692;BME280;33659;42.672;23.354;2023-09-08T01:32:46;69055.53;;;20.00;64.06
11692;BME280;33659;42.672;23.354;2023-09-08T01:35:13;69128.66;;;19.99;64.83
11692;BME280;33659;42.672;23.354;2023-09-08T01:37:41;69132.38;;;20.00;65.08
11692;BME280;33659;42.672;23.354;2023-09-08T01:40:09;69129.75;;;20.00;65.33
11692;BME280;33659;42.672;23.354;2023-09-08T01:42:38;69136.38;;;20.09;65.61
11692;BME280;33659;42.672;23.354;2023-09-08T01:45:06;69148.28;;;20.18;65.45
11692;BME280;33659;42.672;23.354;2023-09-08T01:47:33;69083.28;;;20.26;65.56
11692;BME280;33659;42.672;23.354;2023-09-08T01:50:00;69157.00;;;20.26;65.33
11692;BME280;33659;42.672;23.354;2023-09-08T01:52:27;69162.44;;;20.31;65.44
11692;BME280;33659;42.672;23.354;2023-09-08T01:54:54;69170.06;;;20.38;65.16
11692;BME280;33659;42.672;23.354;2023-09-08T01:57:21;69175.00;;;20.43;64.96
11692;BME280;33659;42.672;23.354;2023-09-08T01:59:49;69185.91;;;20.53;65.04
11692;BME280;33659;42.672;23.354;2023-09-08T02:02:16;69115.97;;;20.57;65.08
11692;BME280;33659;42.672;23.354;2023-09-08T02:04:42;69114.88;;;20.55;65.07
11692;BME280;33659;42.672;23.354;2023-09-08T02:07:09;69115.88;;;20.54;65.65
11692;BME280;33659;42.672;23.354;2023-09-08T02:09:37;69191.34;;;20.58;65.47
11692;BME280;33659;42.672;23.354;2023-09-08T02:12:04;69186.97;;;20.54;65.98
11692;BME280;33659;42.672;23.354;2023-09-08T02:14:31;69108.25;;;20.47;66.50
11692;BME280;33659;42.672;23.354;2023-09-08T02:16:59;69094.63;;;20.34;66.83
11692;BME280;33659;42.672;23.354;2023-09-08T02:19:26;69150.00;;;20.22;67.39
11692;BME280;33659;42.672;23.354;2023-09-08T02:21:53;69072.78;;;20.11;67.72
11692;BME280;33659;42.672;23.354;2023-09-08T02:24:19;69135.94;;;20.11;68.06
11692;BME280;33659;42.672;23.354;2023-09-08T02:26:46;69139.00;;;20.09;68.08
11692;BME280;33659;42.672;23.354;2023-09-08T02:29:13;69064.22;;;20.08;68.24
11692;BME280;33659;42.672;23.354;2023-09-08T02:31:40;69066.41;;;20.10;68.65
11692;BME280;33659;42.672;23.354;2023-09-08T02:34:08;69072.31;;;20.13;68.52
11692;BME280;33659;42.672;23.354;2023-09-08T02:36:35;69156.44;;;20.25;68.25
11692;BME280;33659;42.672;23.354;2023-09-08T02:39:03;69089.34;;;20.34;68.03
11692;BME280;33659;42.672;23.354;2023-09-08T02:41:29;69103.44;;;20.45;67.77
11692;BME280;33659;42.672;23.354;2023-09-08T02:43:56;69113.69;;;20.52;67.37
11692;BME280;33659;42.672;23.354;2023-09-08T02:46:23;69182.63;;;20.50;67.52
11692;BME280;33659;42.672;23.354;2023-09-08T02:48:50;69180.44;;;20.48;67.76
11692;BME280;33659;42.672;23.354;2023-09-08T02:51:19;69168.44;;;20.37;68.07
11692;BME280;33659;42.672;23.354;2023-09-08T02:53:46;69084.75;;;20.22;68.69
11692;BME280;33659;42.672;23.354;2023-09-08T02:56:12;69157.00;;;20.26;68.91
11692;BME280;33659;42.672;23.354;2023-09-08T02:58:39;69158.72;;;20.30;68.67
11692;BME280;33659;42.672;23.354;2023-09-08T03:01:10;69089.91;;;20.35;68.84
11692;BME280;33659;42.672;23.354;2023-09-08T03:03:37;69174.88;;;20.40;68.55
11692;BME280;33659;42.672;23.354;2023-09-08T03:06:04;69168.53;;;20.39;68.59
11692;BME280;33659;42.672;23.354;2023-09-08T03:08:32;69178.81;;;20.46;68.30
11692;BME280;33659;42.672;23.354;2023-09-08T03:10:59;69115.31;;;20.53;68.61
11692;BME280;33659;42.672;23.354;2023-09-08T03:13:26;69121.31;;;20.59;67.97
11692;BME280;33659;42.672;23.354;2023-09-08T03:15:54;69189.91;;;20.62;68.05
11692;BME280;33659;42.672;23.354;2023-09-08T03:18:21;69120.88;;;20.61;68.00
11692;BME280;33659;42.672;23.354;2023-09-08T03:20:48;69194.63;;;20.61;68.30
11692;BME280;33659;42.672;23.354;2023-09-08T03:23:15;69121.88;;;20.60;68.49
11692;BME280;33659;42.672;23.354;2023-09-08T03:25:44;69190.25;;;20.57;68.55
11692;BME280;33659;42.672;23.354;2023-09-08T03:28:11;69118.16;;;20.59;68.59
11692;BME280;33659;42.672;23.354;2023-09-08T03:30:38;69190.81;;;20.58;68.09
11692;BME280;33659;42.672;23.354;2023-09-08T03:33:05;69199.97;;;20.64;68.33
11692;BME280;33659;42.672;23.354;2023-09-08T03:35:31;69110.41;;;20.64;68.39
11692;BME280;33659;42.672;23.354;2023-09-08T03:37:58;69196.81;;;20.63;68.44
11692;BME280;33659;42.672;23.354;2023-09-08T03:40:25;69197.91;;;20.64;68.25
11692;BME280;33659;42.672;23.354;2023-09-08T03:42:53;69101.91;;;20.46;68.42
11692;BME280;33659;42.672;23.354;2023-09-08T03:45:20;69102.88;;;20.44;69.11
11692;BME280;33659;42.672;23.354;2023-09-08T03:47:46;69166.81;;;20.35;69.81
11692;BME280;33659;42.672;23.354;2023-09-08T03:50:13;69140.13;;;20.10;70.51
11692;BME280;33659;42.672;23.354;2023-09-08T03:52:40;69111.31;;;19.86;71.63
11692;BME280;33659;42.672;23.354;2023-09-08T03:55:07;69015.25;;;19.62;72.99
11692;BME280;33659;42.672;23.354;2023-09-08T03:57:34;69007.06;;;19.55;73.29
11692;BME280;33659;42.672;23.354;2023-09-08T04:00:02;69004.25;;;19.49;73.68
11692;BME280;33659;42.672;23.354;2023-09-08T04:02:31;69073.72;;;19.51;73.90
11692;BME280;33659;42.672;23.354;2023-09-08T04:04:58;69077.34;;;19.49;73.99
11692;BME280;33659;42.672;23.354;2023-09-08T04:07:25;69068.28;;;19.45;74.01
11692;BME280;33659;42.672;23.354;2023-09-08T04:09:52;69069.38;;;19.46;74.19
11692;BME280;33659;42.672;23.354;2023-09-08T04:12:18;69065.00;;;19.42;74.45
11692;BME280;33659;42.672;23.354;2023-09-08T04:14:45;69045.84;;;19.22;75.20
11692;BME280;33659;42.672;23.354;2023-09-08T04:17:13;68957.03;;;19.08;75.92
11692;BME280;33659;42.672;23.354;2023-09-08T04:19:40;69013.28;;;18.94;76.57
11692;BME280;33659;42.672;23.354;2023-09-08T04:22:06;69002.28;;;18.81;77.08
11692;BME280;33659;42.672;23.354;2023-09-08T04:24:35;68993.56;;;18.73;77.50
11692;BME280;33659;42.672;23.354;2023-09-08T04:27:02;68988.16;;;18.68;78.02
11692;BME280;33659;42.672;23.354;2023-09-08T04:29:29;68911.78;;;18.63;78.30
11692;BME280;33659;42.672;23.354;2023-09-08T04:31:56;68983.31;;;18.66;78.37
11692;BME280;33659;42.672;23.354;2023-09-08T04:34:24;68978.31;;;18.59;78.66
11692;BME280;33659;42.672;23.354;2023-09-08T04:36:50;68971.78;;;18.53;78.96
11692;BME280;33659;42.672;23.354;2023-09-08T04:39:17;68899.81;;;18.52;78.99
11692;BME280;33659;42.672;23.354;2023-09-08T04:41:44;68966.34;;;18.48;79.12
11692;BME280;33659;42.672;23.354;2023-09-08T04:44:11;68890.66;;;18.46;79.12
11692;BME280;33659;42.672;23.354;2023-09-08T04:46:37;68963.16;;;18.47;79.11
11692;BME280;33659;42.672;23.354;2023-09-08T04:49:04;68965.91;;;18.50;78.84
11692;BME280;33659;42.672;23.354;2023-09-08T04:51:32;68968.06;;;18.52;78.47
11692;BME280;33659;42.672;23.354;2023-09-08T04:53:59;68976.16;;;18.57;78.28
11692;BME280;33659;42.672;23.354;2023-09-08T04:56:25;68977.31;;;18.60;78.13
11692;BME280;33659;42.672;23.354;2023-09-08T04:58:52;68987.03;;;18.67;77.82
11692;BME280;33659;42.672;23.354;2023-09-08T05:01:20;68922.66;;;18.73;77.58
11692;BME280;33659;42.672;23.354;2023-09-08T05:03:47;68999.66;;;18.81;77.50
11692;BME280;33659;42.672;23.354;2023-09-08T05:06:14;68936.38;;;18.88;77.18
11692;BME280;33659;42.672;23.354;2023-09-08T05:08:42;69014.81;;;18.93;76.96
11692;BME280;33659;42.672;23.354;2023-09-08T05:11:09;69041.47;;;19.18;76.46
11692;BME280;33659;42.672;23.354;2023-09-08T05:13:36;68991.84;;;19.40;75.95
11692;BME280;33659;42.672;23.354;2023-09-08T05:16:03;69084.09;;;19.60;74.69
11692;BME280;33659;42.672;23.354;2023-09-08T05:18:36;69111.78;;;19.84;73.63
11692;BME280;33659;42.672;23.354;2023-09-08T05:21:03;69124.41;;;19.98;71.72
11692;BME280;33659;42.672;23.354;2023-09-08T05:23:30;69145.00;;;20.15;70.96
11692;BME280;33659;42.672;23.354;2023-09-08T05:25:58;69152.53;;;20.19;70.75
11692;BME280;33659;42.672;23.354;2023-09-08T05:28:25;69153.72;;;20.23;69.51
11692;BME280;33659;42.672;23.354;2023-09-08T05:30:52;69155.38;;;20.24;69.47
11692;BME280;33659;42.672;23.354;2023-09-08T05:33:19;69145.09;;;20.17;69.68
11692;BME280;33659;42.672;23.354;2023-09-08T05:35:45;69074.56;;;20.18;69.60
11692;BME280;33659;42.672;23.354;2023-09-08T05:38:12;69135.19;;;20.06;69.53
11692;BME280;33659;42.672;23.354;2023-09-08T05:40:39;69126.50;;;19.97;70.25
11692;BME280;33659;42.672;23.354;2023-09-08T05:43:07;69116.66;;;19.88;70.14
11692;BME280;33659;42.672;23.354;2023-09-08T05:45:34;69105.34;;;19.80;70.73
11692;BME280;33659;42.672;23.354;2023-09-08T05:48:02;69111.78;;;19.84;70.78
11692;BME280;33659;42.672;23.354;2023-09-08T05:50:28;69114.50;;;19.86;69.09
11692;BME280;33659;42.672;23.354;2023-09-08T05:52:55;69122.13;;;19.93;68.90
11692;BME280;33659;42.672;23.354;2023-09-08T05:55:22;69131.91;;;20.02;68.36
11692;BME280;33659;42.672;23.354;2023-09-08T05:57:49;69066.41;;;20.10;66.40
11692;BME280;33659;42.672;23.354;2023-09-08T06:00:17;69148.81;;;20.18;64.99
11692;BME280;33659;42.672;23.354;2023-09-08T06:02:45;69165.72;;;20.34;63.92
11692;BME280;33659;42.672;23.354;2023-09-08T06:05:11;69189.72;;;20.57;62.24
11692;BME280;33659;42.672;23.354;2023-09-08T06:07:38;69121.97;;;20.62;62.03
11692;BME280;33659;42.672;23.354;2023-09-08T06:10:06;69197.44;;;20.66;62.29
11692;BME280;33659;42.672;23.354;2023-09-08T06:12:33;69196.25;;;20.63;61.32
11692;BME280;33659;42.672;23.354;2023-09-08T06:15:00;69194.63;;;20.61;62.02
11692;BME280;33659;42.672;23.354;2023-09-08T06:17:29;69125.03;;;20.60;60.27
11692;BME280;33659;42.672;23.354;2023-09-08T06:19:56;69127.22;;;20.62;60.84
11692;BME280;33659;42.672;23.354;2023-09-08T06:22:23;69132.22;;;20.69;60.65
11692;BME280;33659;42.672;23.354;2023-09-08T06:24:50;69142.13;;;20.81;59.99
11692;BME280;33659;42.672;23.354;2023-09-08T06:27:16;69209.34;;;20.75;59.28
11692;BME280;33659;42.672;23.354;2023-09-08T06:29:43;69221.31;;;20.86;57.98
11692;BME280;33659;42.672;23.354;2023-09-08T06:32:10;69153.00;;;20.91;57.56
11692;BME280;33659;42.672;23.354;2023-09-08T06:34:39;69231.69;;;20.96;57.59
11692;BME280;33659;42.672;23.354;2023-09-08T06:37:05;69247.50;;;21.10;57.09
11692;BME280;33659;42.672;23.354;2023-09-08T06:39:32;69251.88;;;21.15;57.14
11692;BME280;33659;42.672;23.354;2023-09-08T06:41:59;69268.78;;;21.30;56.80
11692;BME280;33659;42.672;23.354;2023-09-08T06:44:25;69207.94;;;21.40;56.78
11692;BME280;33659;42.672;23.354;2023-09-08T06:46:52;69210.13;;;21.42;55.85
11692;BME280;33659;42.672;23.354;2023-09-08T06:49:19;69280.25;;;21.41;54.55
11692;BME280;33659;42.672;23.354;2023-09-08T06:51:48;69207.47;;;21.42;54.75
11692;BME280;33659;42.672;23.354;2023-09-08T06:54:14;69283.06;;;21.46;53.88
11692;BME280;33659;42.672;23.354;2023-09-08T06:56:41;69204.66;;;21.37;53.64
11692;BME280;33659;42.672;23.354;2023-09-08T06:59:08;69274.78;;;21.36;54.21
11692;BME280;33659;42.672;23.354;2023-09-08T07:01:35;69278.63;;;21.40;52.81
11692;BME280;33659;42.672;23.354;2023-09-08T07:04:02;69213.41;;;21.45;52.70
11692;BME280;33659;42.672;23.354;2023-09-08T07:06:28;69296.06;;;21.56;52.56
11692;BME280;33659;42.672;23.354;2023-09-08T07:08:56;69305.34;;;21.65;51.83
11692;BME280;33659;42.672;23.354;2023-09-08T07:11:23;69243.91;;;21.74;51.87
11692;BME280;33659;42.672;23.354;2023-09-08T07:13:50;69318.44;;;21.77;51.08
11692;BME280;33659;42.672;23.354;2023-09-08T07:16:16;69324.41;;;21.82;51.14
11692;BME280;33659;42.672;23.354;2023-09-08T07:18:43;69323.31;;;21.81;50.78
11692;BME280;33659;42.672;23.354;2023-09-08T07:21:10;69319.53;;;21.78;50.72
11692;BME280;33659;42.672;23.354;2023-09-08T07:23:37;69321.16;;;21.79;50.18
11692;BME280;33659;42.672;23.354;2023-09-08T07:26:05;69319.53;;;21.78;50.74
11692;BME280;33659;42.672;23.354;2023-09-08T07:28:32;69247.19;;;21.77;50.67
11692;BME280;33659;42.672;23.354;2023-09-08T07:31:03;69250.50;;;21.82;50.37
11692;BME280;33659;42.672;23.354;2023-09-08T07:33:30;69256.44;;;21.85;49.77
11692;BME280;33659;42.672;23.354;2023-09-08T07:35:57;69259.97;;;21.96;50.25
11692;BME280;33659;42.672;23.354;2023-09-08T07:38:24;69269.59;;;22.00;49.50
11692;BME280;33659;42.672;23.354;2023-09-08T07:40:50;69278.78;;;22.06;49.89
11692;BME280;33659;42.672;23.354;2023-09-08T07:43:18;69288.16;;;22.17;49.52
11692;BME280;33659;42.672;23.354;2023-09-08T07:45:45;69376.28;;;22.31;49.05
11692;BME280;33659;42.672;23.354;2023-09-08T07:48:12;69315.41;;;22.43;49.03
11692;BME280;33659;42.672;23.354;2023-09-08T07:50:39;69407.84;;;22.58;48.66
11692;BME280;33659;42.672;23.354;2023-09-08T07:53:05;69343.19;;;22.69;48.86
11692;BME280;33659;42.672;23.354;2023-09-08T07:55:32;69424.31;;;22.76;48.10
11692;BME280;33659;42.672;23.354;2023-09-08T07:58:01;69361.66;;;22.84;48.47
11692;BME280;33659;42.672;23.354;2023-09-08T08:00:30;69359.47;;;22.82;47.79
11692;BME280;33659;42.672;23.354;2023-09-08T08:02:57;69430.84;;;22.82;48.31
11692;BME280;33659;42.672;23.354;2023-09-08T08:05:25;69344.47;;;22.75;48.84
11692;BME280;33659;42.672;23.354;2023-09-08T08:07:52;69424.31;;;22.76;48.79
11692;BME280;33659;42.672;23.354;2023-09-08T08:10:19;69358.28;;;22.78;48.33
11692;BME280;33659;42.672;23.354;2023-09-08T08:12:45;69359.94;;;22.80;48.20
11692;BME280;33659;42.672;23.354;2023-09-08T08:15:12;69339.47;;;22.68;48.42
11692;BME280;33659;42.672;23.354;2023-09-08T08:17:40;69445.06;;;22.95;48.29
11692;BME280;33659;42.672;23.354;2023-09-08T08:20:09;69454.34;;;23.04;48.10
11692;BME280;33659;42.672;23.354;2023-09-08T08:22:42;69449.41;;;22.99;48.24
11692;BME280;33659;42.672;23.354;2023-09-08T08:25:09;69406.41;;;23.26;48.38
11692;BME280;33659;42.672;23.354;2023-09-08T08:27:36;69431.41;;;23.46;47.81
11692;BME280;33659;42.672;23.354;2023-09-08T08:30:03;69506.28;;;23.55;46.23
11692;BME280;33659;42.672;23.354;2023-09-08T08:32:30;69519.34;;;23.64;45.66
11692;BME280;33659;42.672;23.354;2023-09-08T08:34:58;69462.50;;;23.75;45.41
11692;BME280;33659;42.672;23.354;2023-09-08T08:37:25;69460.97;;;23.76;44.88
11692;BME280;33659;42.672;23.354;2023-09-08T08:39:52;69466.41;;;23.82;45.23
11692;BME280;33659;42.672;23.354;2023-09-08T08:42:19;69472.34;;;23.85;44.53
11692;BME280;33659;42.672;23.354;2023-09-08T08:44:47;69478.97;;;23.93;44.24
11692;BME280;33659;42.672;23.354;2023-09-08T08:47:16;69472.41;;;23.87;43.19
11692;BME280;33659;42.672;23.354;2023-09-08T08:49:44;69477.34;;;23.92;43.28
11692;BME280;33659;42.672;23.354;2023-09-08T08:52:13;69472.97;;;23.88;43.88
11692;BME280;33659;42.672;23.354;2023-09-08T08:54:41;69514.88;;;23.58;44.44
11692;BME280;33659;42.672;23.354;2023-09-08T08:57:11;69420.66;;;23.41;44.48
11692;BME280;33659;42.672;23.354;2023-09-08T08:59:38;69480.00;;;23.28;44.54
11692;BME280;33659;42.672;23.354;2023-09-08T09:02:07;69394.94;;;23.15;44.51
11692;BME280;33659;42.672;23.354;2023-09-08T09:04:37;69391.59;;;23.09;45.24
11692;BME280;33659;42.672;23.354;2023-09-08T09:07:05;69374.16;;;22.93;44.66
11692;BME280;33659;42.672;23.354;2023-09-08T09:09:34;69347.00;;;22.73;45.07
11692;BME280;33659;42.672;23.354;2023-09-08T09:12:01;69346.94;;;22.70;45.32
11692;BME280;33659;42.672;23.354;2023-09-08T09:14:28;69429.75;;;22.81;46.67
11692;BME280;33659;42.672;23.354;2023-09-08T09:16:58;69445.06;;;22.95;46.58
11692;BME280;33659;42.672;23.354;2023-09-08T09:19:25;69395.50;;;23.15;45.74
11692;BME280;33659;42.672;23.354;2023-09-08T09:21:53;69488.75;;;23.36;46.27
11692;BME280;33659;42.672;23.354;2023-09-08T09:24:29;69501.84;;;23.48;46.13
11692;BME280;33659;42.672;23.354;2023-09-08T09:26:57;69433.44;;;23.61;45.48
11692;BME280;33659;42.672;23.354;2023-09-08T09:29:24;69446.78;;;23.63;44.98
11692;BME280;33659;42.672;23.354;2023-09-08T09:31:51;69537.84;;;23.79;44.71
11692;BME280;33659;42.672;23.354;2023-09-08T09:34:19;69463.94;;;23.87;43.98
11692;BME280;33659;42.672;23.354;2023-09-08T09:36:47;69547.75;;;23.91;44.77
11692;BME280;33659;42.672;23.354;2023-09-08T09:39:17;69559.69;;;23.99;44.45
11692;BME280;33659;42.672;23.354;2023-09-08T09:41:45;69555.47;;;24.00;44.33
11692;BME280;33659;42.672;23.354;2023-09-08T09:44:13;69471.25;;;23.84;44.85
11692;BME280;33659;42.672;23.354;2023-09-08T09:46:43;69513.81;;;24.23;44.49
11692;BME280;33659;42.672;23.354;2023-09-08T09:49:11;69515.53;;;24.27;44.24
11692;BME280;33659;42.672;23.354;2023-09-08T09:51:43;69587.06;;;24.27;44.12
11692;BME280;33659;42.672;23.354;2023-09-08T09:54:09;69597.41;;;24.35;44.30
11692;BME280;33659;42.672;23.354;2023-09-08T09:56:38;69514.44;;;24.26;44.68
11692;BME280;33659;42.672;23.354;2023-09-08T09:59:07;69596.75;;;24.31;45.24
11692;BME280;33659;42.672;23.354;2023-09-08T10:01:36;69592.53;;;24.32;45.57
11692;BME280;33659;42.672;23.354;2023-09-08T10:04:03;69525.28;;;24.34;45.41
11692;BME280;33659;42.672;23.354;2023-09-08T10:06:31;69603.94;;;24.41;45.09
11692;BME280;33659;42.672;23.354;2023-09-08T10:08:59;69526.47;;;24.38;44.97
11692;BME280;33659;42.672;23.354;2023-09-08T10:11:28;69527.00;;;24.38;45.49
11692;BME280;33659;42.672;23.354;2023-09-08T10:13:58;69594.63;;;24.32;45.13
11692;BME280;33659;42.672;23.354;2023-09-08T10:16:27;69521.47;;;24.30;45.65
11692;BME280;33659;42.672;23.354;2023-09-08T10:18:58;69567.88;;;24.07;44.99
11692;BME280;33659;42.672;23.354;2023-09-08T10:21:26;69605.13;;;24.44;44.80
11692;BME280;33659;42.672;23.354;2023-09-08T10:24:12;69548.13;;;24.53;45.02
11692;BME280;33659;42.672;23.354;2023-09-08T10:26:47;69552.66;;;24.62;44.76
11692;BME280;33659;42.672;23.354;2023-09-08T10:29:18;69550.94;;;24.58;44.95
11692;BME280;33659;42.672;23.354;2023-09-08T10:31:45;69539.56;;;24.50;45.42
11692;BME280;33659;42.672;23.354;2023-09-08T10:34:14;69534.59;;;24.43;45.92
11692;BME280;33659;42.672;23.354;2023-09-08T10:36:42;69598.50;;;24.36;45.62
11692;BME280;33659;42.672;23.354;2023-09-08T10:39:32;69511.16;;;24.23;45.86
11692;BME280;33659;42.672;23.354;2023-09-08T10:42:20;69528.03;;;24.37;45.47
11692;BME280;33659;42.672;23.354;2023-09-08T10:44:57;69601.28;;;24.41;45.28
11692;BME280;33659;42.672;23.354;2023-09-08T10:47:24;69524.84;;;24.36;45.81
11692;BME280;33659;42.672;23.354;2023-09-08T10:49:53;69597.94;;;24.35;46.11
11692;BME280;33659;42.672;23.354;2023-09-08T10:52:23;69607.22;;;24.44;46.71
11692;BME280;33659;42.672;23.354;2023-09-08T10:54:51;69545.03;;;24.55;45.50
11692;BME280;33659;42.672;23.354;2023-09-08T10:57:20;69620.34;;;24.56;45.38
11692;BME280;33659;42.672;23.354;2023-09-08T10:59:51;69615.97;;;24.52;45.13
11692;BME280;33659;42.672;23.354;2023-09-08T11:02:34;69588.19;;;24.28;45.17
11692;BME280;33659;42.672;23.354;2023-09-08T11:05:04;69536.28;;;24.47;45.83
11692;BME280;33659;42.672;23.354;2023-09-08T11:07:33;69530.75;;;24.39;46.25
11692;BME280;33659;42.672;23.354;2023-09-08T11:10:00;69524.28;;;24.36;46.02
11692;BME280;33659;42.672;23.354;2023-09-08T11:12:27;69600.69;;;24.38;46.71
11692;BME280;33659;42.672;23.354;2023-09-08T11:14:54;69527.50;;;24.36;45.55
11692;BME280;33659;42.672;23.354;2023-09-08T11:17:23;69592.53;;;24.32;46.23
11692;BME280;33659;42.672;23.354;2023-09-08T11:19:51;69512.97;;;24.30;45.58
11692;BME280;33659;42.672;23.354;2023-09-08T11:22:21;69552.50;;;24.57;45.92
11692;BME280;33659;42.672;23.354;2023-09-08T11:24:50;69518.81;;;24.30;45.78
11692;BME280;33659;42.672;23.354;2023-09-08T11:27:17;69529.13;;;24.55;45.44
11692;BME280;33659;42.672;23.354;2023-09-08T11:29:44;69507.88;;;24.20;45.31
11692;BME280;33659;42.672;23.354;2023-09-08T11:32:11;69510.47;;;24.18;46.06
11692;BME280;33659;42.672;23.354;2023-09-08T11:34:39;69526.41;;;24.35;46.35
11692;BME280;33659;42.672;23.354;2023-09-08T11:37:08;69593.00;;;24.30;45.91
11692;BME280;33659;42.672;23.354;2023-09-08T11:39:38;69516.63;;;24.28;45.62
11692;BME280;33659;42.672;23.354;2023-09-08T11:42:05;69594.75;;;24.35;45.84
11692;BME280;33659;42.672;23.354;2023-09-08T11:44:32;69629.09;;;24.64;45.88
11692;BME280;33659;42.672;23.354;2023-09-08T11:46:59;69569.53;;;24.93;45.29
11692;BME280;33659;42.672;23.354;2023-09-08T11:49:33;69666.34;;;25.01;45.08
11692;BME280;33659;42.672;23.354;2023-09-08T11:52:00;69693.06;;;25.24;45.12
11692;BME280;33659;42.672;23.354;2023-09-08T11:54:26;69662.38;;;25.62;43.79
11692;BME280;33659;42.672;23.354;2023-09-08T11:56:56;69697.34;;;25.95;43.04
11692;BME280;33659;42.672;23.354;2023-09-08T11:59:23;69714.84;;;26.11;42.48
11692;BME280;33659;42.672;23.354;2023-09-08T12:01:51;69726.06;;;26.31;42.31
11692;BME280;33659;42.672;23.354;2023-09-08T12:04:19;69746.53;;;26.40;41.26
11692;BME280;33659;42.672;23.354;2023-09-08T12:06:47;69716.47;;;26.12;41.63
11692;BME280;33659;42.672;23.354;2023-09-08T12:09:14;69696.25;;;25.93;42.43
11692;BME280;33659;42.672;23.354;2023-09-08T12:11:42;69756.44;;;25.80;42.55
11692;BME280;33659;42.672;23.354;2023-09-08T12:14:11;69679.34;;;25.78;42.37
11692;BME280;33659;42.672;23.354;2023-09-08T12:16:38;69694.06;;;25.91;41.98
11692;BME280;33659;42.672;23.354;2023-09-08T12:19:05;69730.69;;;26.26;41.40
11692;BME280;33659;42.672;23.354;2023-09-08T12:21:54;69822.16;;;26.44;41.38
11692;BME280;33659;42.672;23.354;2023-09-08T12:24:49;69756.66;;;26.60;41.52
11692;BME280;33659;42.672;23.354;2023-09-08T12:27:16;69749.31;;;26.63;39.70
11692;BME280;33659;42.672;23.354;2023-09-08T12:29:55;69758.56;;;26.52;39.89
11692;BME280;33659;42.672;23.354;2023-09-08T12:32:23;69779.81;;;26.69;39.44
11692;BME280;33659;42.672;23.354;2023-09-08T12:34:50;69767.06;;;26.69;39.67
11692;BME280;33659;42.672;23.354;2023-09-08T12:37:20;69788.06;;;26.79;39.84
11692;BME280;33659;42.672;23.354;2023-09-08T12:39:47;69789.41;;;26.88;39.92
11692;BME280;33659;42.672;23.354;2023-09-08T12:42:14;69814.44;;;27.06;39.06
11692;BME280;33659;42.672;23.354;2023-09-08T12:44:41;69823.38;;;27.22;39.04
11692;BME280;33659;42.672;23.354;2023-09-08T12:47:10;69828.00;;;27.16;39.35
11692;BME280;33659;42.672;23.354;2023-09-08T12:49:37;69824.56;;;27.25;39.48
11692;BME280;33659;42.672;23.354;2023-09-08T12:52:04;69930.56;;;27.45;38.89
11692;BME280;33659;42.672;23.354;2023-09-08T12:54:32;69873.94;;;27.59;38.83